Time;durP1;ratioP1;P1;durP2;ratioP2;P2;SDS_P1;SDS_P2;PMS_P1;PMS_P2;Temp;Humidity;BMP_temperature;BMP_pressure;BME280_temperature;BME280_humidity;BME280_pressure;Samples;Min_cycle;Max_cycle;Signal;HPM_P1;HPM_P2
2020/12/10 00:00:38;;;;;;;;;;;;;;;21.21;37.90;99850.59;3124078;27;114484;-55
2020/12/10 00:02:10;;;;;;;;;;;;;;;21.20;37.75;99857.38;3129939;27;115478;-55
2020/12/10 00:03:41;;;;;;;;;;;;;;;21.18;38.14;99854.06;3133518;27;114538;-54
2020/12/10 00:05:12;;;;;;;;;;;;;;;21.17;37.91;99855.22;3134612;27;115252;-54
2020/12/10 00:06:44;;;;;;;;;;;;;;;21.16;38.04;99842.38;3120732;27;117512;-54
2020/12/10 00:08:15;;;;;;;;;;;;;;;21.15;38.01;99840.72;3125491;27;114363;-55
2020/12/10 00:09:47;;;;;;;;;;;;;;;21.12;38.17;99839.38;3134146;27;114302;-56
2020/12/10 00:11:18;;;;;;;;;;;;;;;21.11;38.19;99836.91;3134551;27;114397;-53
2020/12/10 00:12:50;;;;;;;;;;;;;;;21.09;38.00;99842.88;3119027;27;115208;-54
2020/12/10 00:14:21;;;;;;;;;;;;;;;21.09;38.20;99842.03;3128422;27;114270;-54
2020/12/10 00:15:53;;;;;;;;;;;;;;;21.06;38.25;99832.31;3133469;27;115466;-53
2020/12/10 00:17:26;;;;;;;;;;;;;;;21.06;38.47;99837.94;3132526;27;114759;-54
2020/12/10 00:18:57;;;;;;;;;;;;;;;21.04;38.10;99839.41;3132914;27;115093;-53
2020/12/10 00:20:29;;;;;;;;;;;;;;;21.03;38.00;99829.38;3133632;27;114181;-55
2020/12/10 00:22:01;;;;;;;;;;;;;;;21.02;38.01;99836.97;3136759;27;116475;-55
2020/12/10 00:23:32;;;;;;;;;;;;;;;21.00;38.17;99828.03;3131200;27;116325;-55
2020/12/10 00:25:05;;;;;;;;;;;;;;;20.99;38.26;99831.19;3130693;27;115016;-55
2020/12/10 00:26:36;;;;;;;;;;;;;;;20.97;38.21;99825.09;3132998;27;114995;-56
2020/12/10 00:28:07;;;;;;;;;;;;;;;20.97;38.63;99822.28;3131774;27;114633;-54
2020/12/10 00:29:39;;;;;;;;;;;;;;;20.96;38.55;99826.25;3133807;27;118010;-55
2020/12/10 00:31:10;;;;;;;;;;;;;;;20.91;38.67;99824.47;3135185;27;114605;-54
2020/12/10 00:32:41;;;;;;;;;;;;;;;20.90;38.61;99822.81;3134778;27;114794;-55
2020/12/10 00:34:12;;;;;;;;;;;;;;;20.90;38.48;99821.97;3135508;27;116098;-55
2020/12/10 00:35:44;;;;;;;;;;;;;;;20.88;38.47;99815.91;3136186;27;114798;-54
2020/12/10 00:37:15;;;;;;;;;;;;;;;20.86;38.64;99816.22;3121953;27;115234;-55
2020/12/10 00:38:47;;;;;;;;;;;;;;;20.84;38.92;99818.56;3126603;27;114734;-54
2020/12/10 00:40:19;;;;;;;;;;;;;;;20.84;38.71;99818.56;3135743;27;116072;-55
2020/12/10 00:41:53;;;;;;;;;;;;;;;20.81;38.72;99808.81;3135615;27;114636;-59
2020/12/10 00:43:25;;;;;;;;;;;;;;;20.80;38.60;99815.59;3120867;27;115717;-60
2020/12/10 00:44:56;;;;;;;;;;;;;;;20.78;38.60;99811.50;3130952;27;114760;-59
2020/12/10 00:46:28;;;;;;;;;;;;;;;20.76;38.59;99811.00;3135600;27;114108;-59
2020/12/10 00:47:59;;;;;;;;;;;;;;;20.74;38.78;99816.97;3120974;27;114489;-59
2020/12/10 00:49:30;;;;;;;;;;;;;;;20.73;39.01;99812.50;3121057;27;114389;-59
2020/12/10 00:51:02;;;;;;;;;;;;;;;20.72;38.94;99816.47;3131834;27;114104;-60
2020/12/10 00:52:36;;;;;;;;;;;;;;;20.70;38.80;99813.19;3120791;27;114377;-61
2020/12/10 00:54:08;;;;;;;;;;;;;;;20.68;39.10;99809.06;3129696;27;114052;-60
2020/12/10 00:55:40;;;;;;;;;;;;;;;20.66;38.96;99817.81;3135538;27;113742;-60
2020/12/10 00:57:11;;;;;;;;;;;;;;;20.65;39.14;99809.72;3135484;27;113948;-60
2020/12/10 00:58:44;;;;;;;;;;;;;;;20.63;38.98;99804.44;3120598;27;114828;-60
2020/12/10 01:00:17;;;;;;;;;;;;;;;20.62;39.28;99808.44;3131378;27;114428;-60
2020/12/10 01:01:48;;;;;;;;;;;;;;;20.59;39.31;99799.84;3121359;27;114027;-60
2020/12/10 01:03:19;;;;;;;;;;;;;;;20.59;39.24;99803.47;3129893;27;114216;-60
2020/12/10 01:04:51;;;;;;;;;;;;;;;20.57;39.33;99802.19;3135069;27;114018;-60
2020/12/10 01:06:22;;;;;;;;;;;;;;;20.55;39.48;99805.31;3139845;27;114858;-60
2020/12/10 01:07:54;;;;;;;;;;;;;;;20.55;39.46;99807.28;3133506;27;114322;-60
2020/12/10 01:09:25;;;;;;;;;;;;;;;20.54;39.49;99806.47;3134930;27;115578;-59
2020/12/10 01:10:56;;;;;;;;;;;;;;;20.53;39.54;99798.41;3135148;27;114653;-59
2020/12/10 01:12:29;;;;;;;;;;;;;;;20.51;39.59;99800.72;3133592;27;115305;-61
2020/12/10 01:14:01;;;;;;;;;;;;;;;20.49;39.42;99806.66;3134915;27;115070;-59
2020/12/10 01:15:32;;;;;;;;;;;;;;;20.48;39.38;99795.78;3132405;27;115086;-61
2020/12/10 01:17:03;;;;;;;;;;;;;;;20.47;39.59;99800.56;3134095;27;115506;-60
2020/12/10 01:18:35;;;;;;;;;;;;;;;20.46;39.61;99800.91;3132884;27;114685;-59
2020/12/10 01:20:06;;;;;;;;;;;;;;;20.45;39.42;99797.25;3135365;27;114158;-59
2020/12/10 01:21:37;;;;;;;;;;;;;;;20.44;39.66;99794.81;3135584;27;115821;-59
2020/12/10 01:23:09;;;;;;;;;;;;;;;20.42;39.70;99795.13;3118751;27;114432;-59
2020/12/10 01:24:40;;;;;;;;;;;;;;;20.41;39.67;99793.47;3131158;27;114642;-59
2020/12/10 01:26:11;;;;;;;;;;;;;;;20.39;39.68;99790.22;3134198;27;115817;-59
2020/12/10 01:27:42;;;;;;;;;;;;;;;20.38;39.81;99792.19;3138684;27;115093;-62
2020/12/10 01:29:13;;;;;;;;;;;;;;;20.36;39.67;99780.47;3134661;27;115084;-59
2020/12/10 01:30:45;;;;;;;;;;;;;;;20.36;39.74;99786.06;3135187;27;114905;-58
2020/12/10 01:32:17;;;;;;;;;;;;;;;20.35;39.65;99789.25;3134712;27;116499;-61
2020/12/10 01:33:48;;;;;;;;;;;;;;;20.33;39.75;99783.94;3133534;27;115573;-58
2020/12/10 01:35:19;;;;;;;;;;;;;;;20.31;39.96;99780.63;3135319;27;115499;-59
2020/12/10 01:36:51;;;;;;;;;;;;;;;20.30;39.64;99779.03;3134892;27;115758;-58
2020/12/10 01:38:23;;;;;;;;;;;;;;;20.27;40.06;99778.81;3132568;27;115808;-59
2020/12/10 01:39:54;;;;;;;;;;;;;;;20.27;39.96;99778.81;3121200;27;116079;-59
2020/12/10 01:41:30;;;;;;;;;;;;;;;20.25;40.05;99776.38;3130076;27;114549;-59
2020/12/10 01:43:02;;;;;;;;;;;;;;;20.23;40.26;99773.06;3133313;27;117175;-58
2020/12/10 01:44:33;;;;;;;;;;;;;;;20.22;39.98;99770.56;3128982;27;114542;-58
2020/12/10 01:46:05;;;;;;;;;;;;;;;20.21;40.22;99775.38;3131554;27;114792;-58
2020/12/10 01:47:36;;;;;;;;;;;;;;;20.19;40.06;99774.88;3133486;27;115087;-58
2020/12/10 01:49:08;;;;;;;;;;;;;;;20.19;40.13;99768.44;3138476;27;115997;-59
2020/12/10 01:50:39;;;;;;;;;;;;;;;20.18;40.12;99772.41;3121031;27;114252;-58
2020/12/10 01:52:10;;;;;;;;;;;;;;;20.16;40.14;99767.16;3130226;27;114337;-59
2020/12/10 01:53:41;;;;;;;;;;;;;;;20.14;40.59;99763.84;3133279;27;114515;-59
2020/12/10 01:55:13;;;;;;;;;;;;;;;20.13;40.39;99767.81;3134911;27;114370;-59
2020/12/10 01:56:46;;;;;;;;;;;;;;;20.11;40.23;99761.72;3135361;27;114334;-59
2020/12/10 01:58:17;;;;;;;;;;;;;;;20.12;40.29;99762.56;3132397;27;113821;-59
2020/12/10 01:59:49;;;;;;;;;;;;;;;20.10;40.33;99764.84;3131864;27;113721;-59
2020/12/10 02:01:20;;;;;;;;;;;;;;;20.07;40.41;99754.31;3134051;27;115348;-59
2020/12/10 02:02:57;;;;;;;;;;;;;;;20.06;40.49;99758.25;3133620;27;114651;-59
2020/12/10 02:04:33;;;;;;;;;;;;;;;20.05;40.21;99762.22;3134612;27;114681;-59
2020/12/10 02:06:04;;;;;;;;;;;;;;;20.04;40.35;99766.19;3135650;27;114189;-59
2020/12/10 02:07:36;;;;;;;;;;;;;;;20.01;40.45;99758.44;3119053;27;114698;-59
2020/12/10 02:09:07;;;;;;;;;;;;;;;20.02;40.38;99758.13;3129493;27;114341;-59
2020/12/10 02:10:38;;;;;;;;;;;;;;;20.01;40.54;99750.03;3134605;27;114202;-59
2020/12/10 02:12:09;;;;;;;;;;;;;;;19.99;40.70;99753.16;3124980;27;113858;-59
2020/12/10 02:13:41;;;;;;;;;;;;;;;19.97;40.51;99749.88;3129171;27;114296;-59
2020/12/10 02:15:12;;;;;;;;;;;;;;;19.95;40.42;99747.41;3120748;27;114878;-59
2020/12/10 02:16:43;;;;;;;;;;;;;;;19.92;40.62;99744.44;3130290;27;115440;-59
2020/12/10 02:18:15;;;;;;;;;;;;;;;19.90;40.91;99752.34;3134542;27;114113;-59
2020/12/10 02:19:46;;;;;;;;;;;;;;;19.90;40.85;99753.19;3134901;27;114811;-59
2020/12/10 02:21:17;;;;;;;;;;;;;;;19.88;40.92;99752.72;3135712;27;115075;-60
2020/12/10 02:22:50;;;;;;;;;;;;;;;19.87;40.80;99750.22;3132482;27;114821;-60
2020/12/10 02:24:21;;;;;;;;;;;;;;;19.82;40.79;99751.22;3132010;27;115023;-59
2020/12/10 02:25:53;;;;;;;;;;;;;;;19.83;40.72;99752.06;3135066;27;114074;-60
2020/12/10 02:27:24;;;;;;;;;;;;;;;19.82;40.79;99748.44;3120371;27;114205;-60
2020/12/10 02:29:02;;;;;;;;;;;;;;;19.80;40.91;99756.38;3129413;27;114337;-59
2020/12/10 02:30:33;;;;;;;;;;;;;;;19.79;40.82;99757.50;3134817;27;115114;-59
2020/12/10 02:32:05;;;;;;;;;;;;;;;19.78;40.85;99755.03;3134243;27;115271;-60
2020/12/10 02:33:36;;;;;;;;;;;;;;;19.76;41.07;99754.56;3123476;27;114432;-59
2020/12/10 02:35:07;;;;;;;;;;;;;;;19.74;41.03;99754.06;3116978;27;115862;-59
2020/12/10 02:36:38;;;;;;;;;;;;;;;19.74;40.95;99756.84;3130425;27;114647;-60
2020/12/10 02:38:11;;;;;;;;;;;;;;;19.70;41.16;99750.28;3131034;27;116027;-60
2020/12/10 02:39:42;;;;;;;;;;;;;;;19.71;41.09;99751.94;3134277;27;115981;-60
2020/12/10 02:41:14;;;;;;;;;;;;;;;19.69;40.97;99755.03;3121197;27;116193;-60
2020/12/10 02:42:45;;;;;;;;;;;;;;;19.68;41.00;99753.41;3128881;27;115892;-61
2020/12/10 02:44:17;;;;;;;;;;;;;;;19.67;41.26;99750.94;3121140;27;116070;-60
2020/12/10 02:45:48;;;;;;;;;;;;;;;19.65;41.01;99747.63;3129890;27;114750;-60
2020/12/10 02:47:19;;;;;;;;;;;;;;;19.63;41.13;99750.75;3134262;27;115817;-60
2020/12/10 02:48:50;;;;;;;;;;;;;;;19.62;41.20;99751.94;3133322;27;115231;-59
2020/12/10 02:50:22;;;;;;;;;;;;;;;19.62;41.25;99754.75;3109023;27;115969;-59
2020/12/10 02:51:53;;;;;;;;;;;;;;;19.60;41.32;99751.44;3116904;27;114890;-59
2020/12/10 02:53:24;;;;;;;;;;;;;;;19.59;41.23;99740.53;3113601;27;115052;-59
2020/12/10 02:54:55;;;;;;;;;;;;;;;19.57;41.48;99749.31;3132993;27;114789;-60
2020/12/10 02:56:27;;;;;;;;;;;;;;;19.56;41.53;99744.84;3134968;27;114143;-59
2020/12/10 02:57:58;;;;;;;;;;;;;;;19.55;41.60;99743.19;3132670;27;113858;-59
2020/12/10 02:59:29;;;;;;;;;;;;;;;19.55;41.43;99754.41;3133771;27;113938;-59
2020/12/10 03:01:00;;;;;;;;;;;;;;;19.53;41.51;99742.72;3134134;27;113721;-59
2020/12/10 03:02:31;;;;;;;;;;;;;;;19.51;41.66;99739.41;3133432;27;113971;-54
2020/12/10 03:04:04;;;;;;;;;;;;;;;19.51;41.65;99742.22;3134080;27;114857;-54
2020/12/10 03:05:35;;;;;;;;;;;;;;;19.50;41.80;99743.34;3134939;27;113998;-54
2020/12/10 03:07:06;;;;;;;;;;;;;;;19.48;41.52;99740.09;3134095;27;113919;-54
2020/12/10 03:08:41;;;;;;;;;;;;;;;19.46;41.51;99739.56;3132206;27;114256;-54
2020/12/10 03:10:12;;;;;;;;;;;;;;;19.46;41.49;99745.19;3120431;27;119603;-55
2020/12/10 03:11:43;;;;;;;;;;;;;;;19.48;41.77;99742.88;3130014;27;114134;-55
2020/12/10 03:13:15;;;;;;;;;;;;;;;19.47;41.56;99741.22;3118791;27;114458;-54
2020/12/10 03:14:46;;;;;;;;;;;;;;;19.44;41.78;99748.31;3129769;27;113876;-54
2020/12/10 03:16:17;;;;;;;;;;;;;;;19.45;41.41;99741.56;3139136;27;113891;-54
2020/12/10 03:17:49;;;;;;;;;;;;;;;19.43;41.58;99740.22;3132958;27;114579;-54
2020/12/10 03:19:20;;;;;;;;;;;;;;;19.43;41.79;99745.81;3133901;27;115125;-54
2020/12/10 03:20:53;;;;;;;;;;;;;;;19.42;41.60;99735.75;3121011;27;114687;-54
2020/12/10 03:22:24;;;;;;;;;;;;;;;19.39;41.58;99736.44;3129590;27;115205;-59
2020/12/10 03:23:55;;;;;;;;;;;;;;;19.38;41.46;99730.00;3131659;27;114053;-59
2020/12/10 03:25:26;;;;;;;;;;;;;;;19.38;41.60;99734.78;3134241;27;114681;-59
2020/12/10 03:26:58;;;;;;;;;;;;;;;19.35;41.67;99730.66;3134025;27;115250;-59
2020/12/10 03:28:29;;;;;;;;;;;;;;;19.34;41.86;99719.78;3133273;27;115117;-59
2020/12/10 03:30:00;;;;;;;;;;;;;;;19.34;41.75;99714.19;3134911;27;115116;-59
2020/12/10 03:31:31;;;;;;;;;;;;;;;19.32;41.93;99714.50;3121034;27;114302;-59
2020/12/10 03:33:03;;;;;;;;;;;;;;;19.30;41.86;99711.22;3128444;27;114395;-59
2020/12/10 03:34:34;;;;;;;;;;;;;;;19.29;41.95;99714.34;3133540;27;115209;-58
2020/12/10 03:36:06;;;;;;;;;;;;;;;19.27;42.03;99720.28;3134538;27;115121;-58
2020/12/10 03:37:37;;;;;;;;;;;;;;;19.28;42.08;99712.69;3135119;27;115279;-58
2020/12/10 03:39:08;;;;;;;;;;;;;;;19.26;41.97;99717.81;3133073;27;114847;-58
2020/12/10 03:40:40;;;;;;;;;;;;;;;19.24;42.21;99715.34;3133463;27;114890;-58
2020/12/10 03:42:11;;;;;;;;;;;;;;;19.23;42.18;99713.69;3133862;27;116022;-57
2020/12/10 03:43:42;;;;;;;;;;;;;;;19.22;42.13;99723.25;3132433;27;115924;-55
2020/12/10 03:45:13;;;;;;;;;;;;;;;19.21;42.27;99724.41;3133382;27;115870;-54
2020/12/10 03:46:44;;;;;;;;;;;;;;;19.21;42.29;99718.81;3131066;27;114856;-54
2020/12/10 03:48:16;;;;;;;;;;;;;;;19.22;42.15;99716.81;3133185;27;114621;-54
2020/12/10 03:49:47;;;;;;;;;;;;;;;19.21;42.29;99718.81;3133913;27;115075;-54
2020/12/10 03:51:18;;;;;;;;;;;;;;;19.21;42.25;99716.00;3133878;27;115079;-53
2020/12/10 03:52:49;;;;;;;;;;;;;;;19.18;42.42;99715.81;3133194;27;115925;-53
2020/12/10 03:54:20;;;;;;;;;;;;;;;19.18;42.58;99716.66;3119625;27;115342;-53
2020/12/10 03:55:52;;;;;;;;;;;;;;;19.18;42.33;99722.25;3129770;27;114632;-54
2020/12/10 03:57:23;;;;;;;;;;;;;;;19.16;42.50;99721.78;3133476;27;115694;-54
2020/12/10 03:58:54;;;;;;;;;;;;;;;19.14;42.49;99718.47;3131886;27;114414;-54
2020/12/10 04:00:26;;;;;;;;;;;;;;;19.15;42.64;99716.50;3138001;27;115767;-55
2020/12/10 04:01:57;;;;;;;;;;;;;;;19.15;42.35;99717.31;3134043;27;114613;-53
2020/12/10 04:03:29;;;;;;;;;;;;;;;19.13;42.47;99714.00;3131732;27;114415;-54
2020/12/10 04:05:00;;;;;;;;;;;;;;;19.12;42.47;99718.00;3133571;27;114123;-54
2020/12/10 04:06:31;;;;;;;;;;;;;;;19.10;42.54;99717.47;3135273;27;113917;-53
2020/12/10 04:08:02;;;;;;;;;;;;;;;19.09;42.71;99719.44;3134482;27;113772;-53
2020/12/10 04:09:33;;;;;;;;;;;;;;;19.09;42.42;99722.25;3135308;27;114012;-54
2020/12/10 04:11:04;;;;;;;;;;;;;;;19.07;42.50;99718.97;3136476;27;114760;-54
2020/12/10 04:12:35;;;;;;;;;;;;;;;19.05;42.58;99717.63;3134827;27;114177;-54
2020/12/10 04:14:07;;;;;;;;;;;;;;;19.06;42.63;99713.69;3135498;27;114071;-53
2020/12/10 04:15:38;;;;;;;;;;;;;;;19.04;42.56;99719.59;3135857;27;113935;-53
2020/12/10 04:17:09;;;;;;;;;;;;;;;19.03;42.54;99717.16;3135303;27;113824;-54
2020/12/10 04:18:41;;;;;;;;;;;;;;;19.03;42.68;99717.16;3134821;27;114407;-54
2020/12/10 04:20:12;;;;;;;;;;;;;;;19.02;42.84;99715.50;3122103;27;114402;-58
2020/12/10 04:21:43;;;;;;;;;;;;;;;19.00;42.68;99717.78;3134455;27;114227;-54
2020/12/10 04:23:14;;;;;;;;;;;;;;;19.01;42.66;99725.03;3133357;27;115306;-54
2020/12/10 04:24:46;;;;;;;;;;;;;;;19.00;42.81;99721.41;3135732;27;115175;-54
2020/12/10 04:26:17;;;;;;;;;;;;;;;18.99;42.73;99719.75;3135574;27;114445;-54
2020/12/10 04:27:48;;;;;;;;;;;;;;;18.98;42.80;99723.75;3134898;27;114243;-54
2020/12/10 04:29:19;;;;;;;;;;;;;;;18.97;42.70;99724.06;3134428;27;115111;-55
2020/12/10 04:30:50;;;;;;;;;;;;;;;18.95;42.80;99718.78;3136298;27;115187;-54
2020/12/10 04:32:21;;;;;;;;;;;;;;;18.94;42.80;99721.94;3135067;27;115093;-54
2020/12/10 04:33:53;;;;;;;;;;;;;;;18.96;42.78;99723.22;3134962;27;115251;-54
2020/12/10 04:35:24;;;;;;;;;;;;;;;18.94;42.61;99728.31;3136332;27;114116;-54
2020/12/10 04:36:55;;;;;;;;;;;;;;;18.93;42.71;99726.69;3135724;27;114183;-54
2020/12/10 04:38:27;;;;;;;;;;;;;;;18.94;42.82;99727.53;3118141;27;114339;-54
2020/12/10 04:39:58;;;;;;;;;;;;;;;18.92;42.78;99733.44;3117890;27;115300;-54
2020/12/10 04:41:32;;;;;;;;;;;;;;;18.92;42.88;99729.81;3131325;27;114603;-54
2020/12/10 04:43:04;;;;;;;;;;;;;;;18.90;42.80;99724.53;3135636;27;115154;-54
2020/12/10 04:44:36;;;;;;;;;;;;;;;18.89;42.71;99724.88;3134930;27;116137;-54
2020/12/10 04:46:07;;;;;;;;;;;;;;;18.89;42.73;99722.09;3135565;27;114764;-54
2020/12/10 04:47:40;;;;;;;;;;;;;;;18.88;42.78;99726.84;3134817;27;115311;-55
2020/12/10 04:49:12;;;;;;;;;;;;;;;18.86;42.77;99725.50;3135554;27;116266;-54
2020/12/10 04:50:44;;;;;;;;;;;;;;;18.85;42.87;99733.09;3135615;27;114725;-54
2020/12/10 04:52:15;;;;;;;;;;;;;;;18.84;42.80;99734.25;3135414;27;114764;-54
2020/12/10 04:53:46;;;;;;;;;;;;;;;18.83;42.93;99740.16;3133168;27;114656;-54
2020/12/10 04:55:18;;;;;;;;;;;;;;;18.81;42.82;99734.06;3135868;27;116693;-54
2020/12/10 04:56:49;;;;;;;;;;;;;;;18.81;42.90;99740.47;3136241;27;115733;-54
2020/12/10 04:58:21;;;;;;;;;;;;;;;18.80;42.82;99744.47;3123599;27;115067;-53
2020/12/10 04:59:52;;;;;;;;;;;;;;;18.79;42.79;99742.81;3111984;27;115162;-54
2020/12/10 05:01:23;;;;;;;;;;;;;;;18.77;42.98;99744.25;3122500;27;118632;-54
2020/12/10 05:02:55;;;;;;;;;;;;;;;18.76;43.19;99748.22;3133577;27;117209;-54
2020/12/10 05:04:26;;;;;;;;;;;;;;;18.75;42.90;99746.56;3138221;27;115128;-54
2020/12/10 05:06:07;;;;;;;;;;;;;;;18.74;42.94;99744.91;3135994;27;114006;-53
2020/12/10 05:07:38;;;;;;;;;;;;;;;18.73;43.01;99746.91;3133448;27;114332;-54
2020/12/10 05:09:10;;;;;;;;;;;;;;;18.73;42.95;99754.47;3134805;27;114094;-54
2020/12/10 05:10:43;;;;;;;;;;;;;;;18.71;42.97;99751.19;3121984;27;114264;-56
2020/12/10 05:12:18;;;;;;;;;;;;;;;18.71;42.84;99746.41;3130981;27;114402;-54
2020/12/10 05:13:52;;;;;;;;;;;;;;;18.70;42.87;99744.75;3134637;27;115055;-59
2020/12/10 05:15:31;;;;;;;;;;;;;;;18.69;42.95;99745.91;3135639;27;114052;-61
2020/12/10 05:17:09;;;;;;;;;;;;;;;18.66;42.97;99752.16;3135213;27;115631;-58
2020/12/10 05:18:41;;;;;;;;;;;;;;;18.69;43.02;99753.47;3134414;27;113875;-59
2020/12/10 05:20:13;;;;;;;;;;;;;;;18.69;42.79;99756.25;3134426;27;114572;-59
2020/12/10 05:22:13;;;;;;;;;;;;;;;18.70;43.14;99763.50;3134558;27;113665;-59
2020/12/10 05:23:44;;;;;;;;;;;;;;;18.71;43.72;99760.41;3106843;27;114637;-59
2020/12/10 05:25:16;;;;;;;;;;;;;;;18.75;43.71;99760.56;3131346;27;114403;-59
2020/12/10 05:26:47;;;;;;;;;;;;;;;18.79;43.88;99762.38;3122010;27;114850;-61
2020/12/10 05:28:24;;;;;;;;;;;;;;;18.80;43.80;99755.66;3133936;27;114518;-58
2020/12/10 05:29:56;;;;;;;;;;;;;;;18.83;43.63;99756.97;3132265;27;114181;-57
2020/12/10 05:31:27;;;;;;;;;;;;;;;18.86;43.63;99765.53;3134520;27;114997;-57
2020/12/10 05:33:07;;;;;;;;;;;;;;;18.90;43.98;99760.91;3120562;27;114361;-58
2020/12/10 05:34:38;;;;;;;;;;;;;;;18.94;43.69;99766.72;3121745;27;114719;-58
2020/12/10 05:36:11;;;;;;;;;;;;;;;18.97;43.60;99760.44;3131046;27;115910;-59
2020/12/10 05:37:42;;;;;;;;;;;;;;;19.02;43.82;99758.31;3133567;27;115585;-58
2020/12/10 05:39:14;;;;;;;;;;;;;;;19.06;43.88;99756.50;3123106;27;116547;-59
2020/12/10 05:40:45;;;;;;;;;;;;;;;19.12;43.83;99756.34;3135784;27;114732;-58
2020/12/10 05:42:16;;;;;;;;;;;;;;;19.17;43.81;99759.00;3132867;27;115106;-58
2020/12/10 05:43:48;;;;;;;;;;;;;;;19.22;43.56;99756.00;3121028;27;116832;-58
2020/12/10 05:45:20;;;;;;;;;;;;;;;19.26;43.56;99759.81;3131213;27;115058;-60
2020/12/10 05:47:04;;;;;;;;;;;;;;;19.30;43.50;99755.22;3135455;27;115319;-59
2020/12/10 05:48:36;;;;;;;;;;;;;;;19.35;43.52;99761.44;3134327;27;115149;-59
2020/12/10 05:50:07;;;;;;;;;;;;;;;19.39;43.33;99756.03;3139675;27;115632;-59
2020/12/10 05:51:42;;;;;;;;;;;;;;;19.43;43.25;99762.63;3107231;28;115651;-59
2020/12/10 05:53:14;;;;;;;;;;;;;;;19.47;43.25;99769.25;3125621;27;114674;-59
2020/12/10 05:54:48;;;;;;;;;;;;;;;19.51;43.24;99759.84;3135469;27;116228;-59
2020/12/10 05:56:19;;;;;;;;;;;;;;;19.55;43.10;99762.81;3135463;27;115177;-62
2020/12/10 05:57:51;;;;;;;;;;;;;;;19.59;43.07;99775.00;3135248;27;115864;-59
2020/12/10 05:59:23;;;;;;;;;;;;;;;19.64;43.43;99776.81;3135398;27;115888;-59
2020/12/10 06:00:55;;;;;;;;;;;;;;;19.65;43.00;99770.88;3134903;27;114640;-59
2020/12/10 06:02:26;;;;;;;;;;;;;;;19.69;42.98;99783.06;3131451;27;117754;-59
2020/12/10 06:03:58;;;;;;;;;;;;;;;19.72;43.06;99775.97;3129285;27;115535;-58
2020/12/10 06:05:33;;;;;;;;;;;;;;;19.75;42.91;99781.75;3131949;27;115478;-58
2020/12/10 06:07:10;;;;;;;;;;;;;;;19.78;42.78;99783.06;3135973;27;116175;-58
2020/12/10 06:08:41;;;;;;;;;;;;;;;19.81;42.85;99785.19;3124852;27;114651;-58
2020/12/10 06:10:12;;;;;;;;;;;;;;;19.84;42.65;99778.94;3120888;27;114768;-58
2020/12/10 06:11:43;;;;;;;;;;;;;;;19.87;42.65;99772.66;3133826;27;115569;-58
2020/12/10 06:13:15;;;;;;;;;;;;;;;19.90;42.44;99780.38;3133210;27;114201;-58
2020/12/10 06:14:51;;;;;;;;;;;;;;;19.92;42.72;99784.53;3134758;27;113903;-59
2020/12/10 06:16:22;;;;;;;;;;;;;;;19.95;42.67;99775.44;3121356;27;114222;-59
2020/12/10 06:18:13;;;;;;;;;;;;;;;19.99;42.51;99775.59;3129799;27;113866;-58
2020/12/10 06:19:44;;;;;;;;;;;;;;;20.04;42.43;99780.19;3135282;27;113897;-58
2020/12/10 06:21:45;;;;;;;;;;;;;;;20.05;42.54;99782.69;3135152;27;114399;-58
2020/12/10 06:23:22;;;;;;;;;;;;;;;20.10;42.55;99778.88;3112177;27;114389;-58
2020/12/10 06:24:55;;;;;;;;;;;;;;;20.14;42.54;99782.66;3129291;27;114200;-62
2020/12/10 06:26:26;;;;;;;;;;;;;;;20.16;42.63;99781.19;3120935;27;113782;-59
2020/12/10 06:28:15;;;;;;;;;;;;;;;20.18;42.63;99783.63;3128856;27;114077;-59
2020/12/10 06:29:47;;;;;;;;;;;;;;;20.21;42.45;99783.81;3134847;27;113700;-58
2020/12/10 06:31:18;;;;;;;;;;;;;;;20.24;42.55;99790.72;3135068;27;113735;-59
2020/12/10 06:32:51;;;;;;;;;;;;;;;20.28;43.77;99789.72;3133830;27;115404;-59
2020/12/10 06:34:42;;;;;;;;;;;;;;;20.31;43.81;99788.22;3137161;27;114167;-59
2020/12/10 06:36:24;;;;;;;;;;;;;;;20.35;43.48;99789.25;3134768;27;116012;-59
2020/12/10 06:37:58;;;;;;;;;;;;;;;20.36;43.11;99788.06;3132974;27;114072;-59
2020/12/10 06:39:36;;;;;;;;;;;;;;;20.37;43.19;99790.53;3133976;27;115356;-59
2020/12/10 06:41:07;;;;;;;;;;;;;;;20.40;42.92;99792.66;3134911;27;114468;-59
2020/12/10 06:42:45;;;;;;;;;;;;;;;20.44;42.68;99794.81;3121799;27;115191;-54
2020/12/10 06:44:32;;;;;;;;;;;;;;;20.47;42.72;99785.72;3133920;27;114607;-54
2020/12/10 06:46:03;;;;;;;;;;;;;;;20.49;42.78;99781.41;3135575;27;115275;-54
2020/12/10 06:47:42;;;;;;;;;;;;;;;20.52;42.86;99788.34;3119067;27;114375;-54
2020/12/10 06:49:28;;;;;;;;;;;;;;;20.53;43.27;99782.41;3130546;27;115070;-54
2020/12/10 06:51:09;;;;;;;;;;;;;;;20.56;42.91;99787.31;3133246;27;114563;-54
2020/12/10 06:53:00;;;;;;;;;;;;;;;20.58;43.21;99781.38;3131651;27;115117;-54
2020/12/10 06:54:33;;;;;;;;;;;;;;;20.60;42.94;99793.91;3129110;27;115568;-54
2020/12/10 06:56:11;;;;;;;;;;;;;;;20.63;42.86;99796.03;3131421;27;114309;-54
2020/12/10 06:57:48;;;;;;;;;;;;;;;20.65;42.86;99793.72;3136044;27;114434;-54
2020/12/10 06:59:35;;;;;;;;;;;;;;;20.68;42.26;99795.03;3133278;27;116016;-54
2020/12/10 07:01:24;;;;;;;;;;;;;;;20.71;42.69;99794.38;3134836;27;116111;-55
2020/12/10 07:03:27;;;;;;;;;;;;;;;20.73;42.94;99795.66;3133991;27;116045;-55
2020/12/10 07:05:07;;;;;;;;;;;;;;;20.75;42.88;99792.53;3131729;27;114653;-54
2020/12/10 07:06:38;;;;;;;;;;;;;;;20.77;42.53;99799.44;3134049;27;114983;-54
2020/12/10 07:08:10;;;;;;;;;;;;;;;20.80;42.38;99801.56;3131628;27;115795;-54
2020/12/10 07:09:48;;;;;;;;;;;;;;;20.81;42.39;99811.63;3133592;27;114686;-54
2020/12/10 07:11:39;;;;;;;;;;;;;;;20.82;42.24;99799.25;3132301;27;115959;-54
2020/12/10 07:13:13;;;;;;;;;;;;;;;20.86;42.25;99805.81;3131811;27;115328;-54
2020/12/10 07:14:45;;;;;;;;;;;;;;;20.87;42.11;99806.66;3134440;27;114202;-54
2020/12/10 07:16:16;;;;;;;;;;;;;;;20.89;42.15;99803.50;3134371;27;116543;-54
2020/12/10 07:17:48;;;;;;;;;;;;;;;20.91;42.16;99806.78;3133398;27;115919;-55
2020/12/10 07:19:19;;;;;;;;;;;;;;;20.93;42.26;99808.13;3134452;27;114776;-59
2020/12/10 07:20:50;;;;;;;;;;;;;;;20.95;42.04;99804.94;3134122;27;115870;-60
2020/12/10 07:22:21;;;;;;;;;;;;;;;20.98;42.40;99812.72;3137603;27;115881;-59
2020/12/10 07:23:53;;;;;;;;;;;;;;;20.99;42.32;99805.91;3131505;27;114817;-59
2020/12/10 07:25:24;;;;;;;;;;;;;;;21.00;42.13;99811.19;3133513;27;114249;-58
2020/12/10 07:26:59;;;;;;;;;;;;;;;21.02;42.15;99810.88;3131299;27;114500;-59
2020/12/10 07:28:31;;;;;;;;;;;;;;;21.04;41.97;99811.34;3119233;27;114001;-60
2020/12/10 07:30:09;;;;;;;;;;;;;;;21.06;42.05;99814.63;3116099;27;114893;-58
2020/12/10 07:31:41;;;;;;;;;;;;;;;21.07;41.69;99808.69;3130227;27;113925;-59
2020/12/10 07:33:18;;;;;;;;;;;;;;;21.09;41.60;99811.13;3133156;27;114134;-59
2020/12/10 07:34:49;;;;;;;;;;;;;;;21.10;41.54;99796.78;3120509;27;114499;-60
2020/12/10 07:36:21;;;;;;;;;;;;;;;21.12;41.90;99800.03;3117183;27;114124;-60
2020/12/10 07:37:55;;;;;;;;;;;;;;;21.14;41.87;99797.75;3127266;27;114414;-60
2020/12/10 07:39:27;;;;;;;;;;;;;;;21.16;41.58;99800.25;3132485;27;114489;-59
2020/12/10 07:40:59;;;;;;;;;;;;;;;21.18;41.82;99806.31;3133437;27;114444;-55
2020/12/10 07:42:39;;;;;;;;;;;;;;;21.20;41.52;99804.00;3133297;27;113987;-56
2020/12/10 07:44:11;;;;;;;;;;;;;;;21.22;41.80;99808.13;3110712;28;114135;-55
2020/12/10 07:45:42;;;;;;;;;;;;;;;21.24;41.84;99807.78;3116575;27;114269;-54
2020/12/10 07:47:13;;;;;;;;;;;;;;;21.23;41.47;99806.97;3129484;27;115471;-54
2020/12/10 07:48:49;;;;;;;;;;;;;;;21.25;41.38;99809.44;3133040;27;114297;-54
2020/12/10 07:50:22;;;;;;;;;;;;;;;21.28;41.63;99815.19;3134683;27;115040;-54
2020/12/10 07:52:09;;;;;;;;;;;;;;;21.29;41.51;99807.59;3133769;27;114181;-55
2020/12/10 07:53:41;;;;;;;;;;;;;;;21.32;41.96;99818.13;3127269;27;114598;-55
2020/12/10 07:55:22;;;;;;;;;;;;;;;21.33;41.91;99819.78;3132783;27;114093;-55
2020/12/10 07:56:56;;;;;;;;;;;;;;;21.36;42.08;99819.09;3134086;27;114435;-55